createdAt,value
2018-08-03T00:01:00.533Z,18.77
2018-08-03T00:04:04.853Z,18.76
2018-08-03T00:07:09.248Z,18.81
2018-08-03T00:10:13.567Z,18.86
2018-08-03T00:13:17.981Z,18.85
2018-08-03T00:16:22.274Z,18.84
2018-08-03T00:19:27.761Z,18.77
2018-08-03T00:22:32.082Z,18.65
2018-08-03T00:25:36.394Z,18.57
2018-08-03T00:28:40.703Z,18.50
2018-08-03T00:31:45.037Z,18.42
2018-08-03T00:34:49.321Z,18.43
2018-08-03T00:37:53.659Z,18.43
2018-08-03T00:40:57.926Z,18.45
2018-08-03T00:44:02.193Z,18.55
2018-08-03T00:47:06.497Z,18.55
2018-08-03T00:50:10.825Z,18.52
2018-08-03T00:53:15.171Z,18.44
2018-08-03T00:56:19.479Z,18.42
2018-08-03T00:59:23.604Z,18.42
2018-08-03T01:02:27.908Z,18.44
2018-08-03T01:05:32.186Z,18.43
2018-08-03T01:08:36.547Z,18.34
2018-08-03T01:11:40.768Z,18.35
2018-08-03T01:14:45.046Z,18.39
2018-08-03T01:17:49.411Z,18.35
2018-08-03T01:20:53.556Z,18.27
2018-08-03T01:23:57.962Z,18.24
2018-08-03T01:27:02.253Z,18.19
2018-08-03T01:30:07.371Z,18.14
2018-08-03T01:33:11.737Z,18.06
2018-08-03T01:36:16.002Z,17.98
2018-08-03T01:39:20.361Z,17.91
2018-08-03T01:42:24.633Z,17.88
2018-08-03T01:45:28.905Z,17.85
2018-08-03T01:48:33.209Z,17.83
2018-08-03T01:51:37.497Z,17.81
2018-08-03T01:54:41.778Z,17.81
2018-08-03T01:57:46.076Z,17.80
2018-08-03T02:00:50.398Z,17.78
2018-08-03T02:03:54.823Z,17.75
2018-08-03T02:06:59.159Z,17.75
2018-08-03T02:10:03.458Z,17.75
2018-08-03T02:13:07.972Z,17.75
2018-08-03T02:16:12.321Z,17.71
2018-08-03T02:19:16.662Z,17.70
2018-08-03T02:22:20.977Z,17.72
2018-08-03T02:25:25.230Z,17.78
2018-08-03T02:28:29.489Z,17.77
2018-08-03T02:31:33.563Z,17.73
2018-08-03T02:34:37.812Z,17.71
2018-08-03T02:37:42.171Z,17.66
2018-08-03T02:40:46.556Z,17.61
2018-08-03T02:43:50.894Z,17.57
2018-08-03T02:46:55.316Z,17.56
2018-08-03T02:49:59.735Z,17.62
2018-08-03T02:53:04.057Z,17.68
2018-08-03T02:56:08.378Z,17.69
2018-08-03T02:59:12.708Z,17.60
2018-08-03T03:02:17.012Z,17.53
2018-08-03T03:05:21.338Z,17.48
2018-08-03T03:08:25.667Z,17.43
2018-08-03T03:11:29.929Z,17.41
2018-08-03T03:14:34.165Z,17.39
2018-08-03T03:17:38.555Z,17.37
2018-08-03T03:20:42.810Z,17.37
2018-08-03T03:23:47.188Z,17.33
2018-08-03T03:26:51.448Z,17.33
2018-08-03T03:29:55.677Z,17.32
2018-08-03T03:33:00.040Z,17.28
2018-08-03T03:36:04.368Z,17.28
2018-08-03T03:39:12.251Z,17.31
2018-08-03T03:42:16.581Z,17.36
2018-08-03T03:45:20.912Z,17.39
2018-08-03T03:48:25.232Z,17.38
2018-08-03T03:51:29.533Z,17.38
2018-08-03T03:54:33.856Z,17.36
2018-08-03T03:57:38.278Z,17.36
2018-08-03T04:00:42.595Z,17.32
2018-08-03T04:03:46.960Z,17.30
2018-08-03T04:06:51.254Z,17.26
2018-08-03T04:09:55.664Z,17.25
2018-08-03T04:13:00.093Z,17.24
2018-08-03T04:16:04.556Z,17.22
2018-08-03T04:19:08.974Z,17.22
2018-08-03T04:22:13.647Z,17.24
2018-08-03T04:25:17.905Z,17.30
2018-08-03T04:28:22.215Z,17.40
2018-08-03T04:31:26.567Z,17.49
2018-08-03T04:34:30.828Z,17.55
2018-08-03T04:37:35.175Z,17.63
2018-08-03T04:40:39.503Z,17.70
2018-08-03T04:43:43.851Z,17.75
2018-08-03T04:46:48.138Z,17.81
2018-08-03T04:49:52.485Z,17.90
2018-08-03T04:52:56.803Z,18.00
2018-08-03T04:56:01.544Z,18.12
2018-08-03T04:59:05.860Z,18.22
2018-08-03T05:02:10.579Z,18.34
2018-08-03T05:05:14.918Z,18.45
2018-08-03T05:08:19.251Z,18.55
2018-08-03T05:11:23.541Z,18.67
2018-08-03T05:14:27.888Z,18.79
2018-08-03T05:17:32.177Z,18.93
2018-08-03T05:20:36.534Z,19.05
2018-08-03T05:23:40.850Z,19.17
2018-08-03T05:26:45.158Z,19.29
2018-08-03T05:29:49.458Z,19.43
2018-08-03T05:32:53.880Z,19.57
2018-08-03T05:35:58.240Z,19.71
2018-08-03T05:39:02.913Z,19.84
2018-08-03T05:42:07.252Z,19.96
2018-08-03T05:45:11.584Z,20.09
2018-08-03T05:48:15.739Z,20.19
2018-08-03T05:51:19.979Z,20.28
2018-08-03T05:54:24.223Z,20.37
2018-08-03T05:57:28.560Z,20.47
2018-08-03T06:00:32.979Z,20.54
2018-08-03T06:03:37.221Z,20.62
2018-08-03T06:06:41.509Z,20.70
2018-08-03T06:09:45.808Z,20.81
2018-08-03T06:12:52.097Z,20.90
2018-08-03T06:15:56.419Z,21.01
2018-08-03T06:19:00.739Z,21.14
2018-08-03T06:22:05.089Z,21.22
2018-08-03T06:25:10.037Z,21.32
2018-08-03T06:28:14.319Z,21.43
2018-08-03T06:31:18.646Z,21.53
2018-08-03T06:34:23.049Z,21.64
2018-08-03T06:37:27.397Z,21.72
2018-08-03T06:40:31.686Z,21.81
2018-08-03T06:43:35.740Z,21.94
2018-08-03T06:46:40.222Z,22.01
2018-08-03T06:49:44.548Z,22.11
2018-08-03T06:52:48.855Z,22.24
2018-08-03T06:55:53.201Z,22.39
2018-08-03T06:58:57.601Z,22.54
2018-08-03T07:02:01.922Z,22.72
2018-08-03T07:05:06.302Z,22.85
2018-08-03T07:08:10.628Z,22.96
2018-08-03T07:11:14.863Z,23.09
2018-08-03T07:14:19.238Z,23.21
2018-08-03T07:17:30.026Z,23.30
2018-08-03T07:20:34.349Z,23.39
2018-08-03T07:23:38.728Z,23.44
2018-08-03T07:26:43.068Z,23.59
2018-08-03T07:29:47.306Z,23.71
2018-08-03T07:32:51.655Z,23.77
2018-08-03T07:35:56.003Z,23.87
2018-08-03T07:39:00.333Z,23.97
2018-08-03T07:42:04.616Z,24.08
2018-08-03T07:45:08.926Z,24.21
2018-08-03T07:48:13.254Z,24.24
2018-08-03T07:51:17.589Z,24.36
2018-08-03T07:54:21.881Z,24.37
2018-08-03T07:57:26.244Z,24.43
2018-08-03T08:00:30.702Z,24.56
2018-08-03T08:03:34.968Z,24.63
2018-08-03T08:06:39.400Z,24.67
2018-08-03T08:09:43.788Z,24.68
2018-08-03T08:12:50.154Z,24.70
2018-08-03T08:15:54.527Z,24.82
2018-08-03T08:18:58.948Z,24.95
2018-08-03T08:22:03.340Z,25.12
2018-08-03T08:25:07.956Z,25.12
2018-08-03T08:28:12.383Z,25.18
2018-08-03T08:31:16.672Z,25.23
2018-08-03T08:34:21.054Z,25.27
2018-08-03T08:37:25.499Z,25.33
2018-08-03T08:40:29.995Z,25.40
2018-08-03T08:43:34.351Z,25.34
2018-08-03T08:46:38.633Z,25.53
2018-08-03T08:49:42.913Z,25.64
2018-08-03T08:52:47.234Z,25.71
2018-08-03T08:55:51.552Z,25.68
2018-08-03T08:58:55.817Z,25.81
2018-08-03T09:02:00.715Z,25.95
2018-08-03T09:05:05.297Z,26.11
2018-08-03T09:08:09.691Z,26.19
2018-08-03T09:11:13.958Z,26.12
2018-08-03T09:14:18.562Z,26.18
2018-08-03T09:17:22.975Z,26.29
2018-08-03T09:20:27.314Z,26.49
2018-08-03T09:23:31.698Z,26.64
2018-08-03T09:26:36.472Z,26.76
2018-08-03T09:29:40.821Z,26.67
2018-08-03T09:32:45.236Z,26.57
2018-08-03T09:35:49.710Z,26.61
2018-08-03T09:38:54.111Z,26.72
2018-08-03T09:41:58.365Z,26.85
2018-08-03T09:45:02.749Z,26.85
2018-08-03T09:48:07.080Z,26.78
2018-08-03T09:51:11.396Z,27.03
2018-08-03T09:54:15.654Z,27.02
2018-08-03T09:57:19.923Z,27.08
2018-08-03T10:00:29.428Z,27.20
2018-08-03T10:03:33.735Z,27.29
2018-08-03T10:06:38.109Z,27.36
2018-08-03T10:09:42.372Z,27.36
2018-08-03T10:12:46.681Z,27.50
2018-08-03T10:15:50.922Z,27.64
2018-08-03T10:18:55.237Z,27.80
2018-08-03T10:21:59.583Z,27.77
2018-08-03T10:25:03.924Z,27.75
2018-08-03T10:28:08.180Z,27.54
2018-08-03T10:31:12.710Z,27.69
2018-08-03T10:34:17.046Z,27.75
2018-08-03T10:37:21.406Z,27.88
2018-08-03T10:40:25.800Z,28.10
2018-08-03T10:43:30.169Z,28.12
2018-08-03T10:46:34.577Z,28.17
2018-08-03T10:49:38.985Z,28.29
2018-08-03T10:52:43.341Z,28.23
2018-08-03T10:55:47.626Z,28.37
2018-08-03T10:58:52.397Z,28.58
2018-08-03T11:01:56.782Z,28.70
2018-08-03T11:05:01.077Z,28.70
2018-08-03T11:08:05.393Z,28.57
2018-08-03T11:11:09.698Z,28.69
2018-08-03T11:14:14.035Z,28.64
2018-08-03T11:17:18.464Z,28.71
2018-08-03T11:20:22.760Z,28.75
2018-08-03T11:23:27.086Z,28.71
2018-08-03T11:26:31.501Z,28.68
2018-08-03T11:29:35.878Z,28.64
2018-08-03T11:32:40.228Z,28.63
2018-08-03T11:35:44.968Z,28.75
2018-08-03T11:38:49.291Z,28.66
2018-08-03T11:41:53.618Z,28.72
2018-08-03T11:44:57.954Z,28.79
2018-08-03T11:48:02.272Z,28.85
2018-08-03T11:51:06.836Z,28.86
2018-08-03T11:54:11.490Z,28.90
2018-08-03T11:57:15.817Z,28.98
2018-08-03T12:00:20.520Z,29.07
2018-08-03T12:03:24.876Z,28.94
2018-08-03T12:06:29.289Z,29.07
2018-08-03T12:09:33.517Z,29.02
2018-08-03T12:12:37.925Z,29.12
2018-08-03T12:15:42.184Z,29.15
2018-08-03T12:18:46.513Z,29.09
2018-08-03T12:21:51.170Z,29.12
2018-08-03T12:24:55.533Z,29.28
2018-08-03T12:27:59.799Z,29.43
2018-08-03T12:31:04.192Z,29.46
2018-08-03T12:34:08.614Z,29.51
2018-08-03T12:37:12.941Z,29.47
2018-08-03T12:40:17.341Z,29.49
2018-08-03T12:43:21.733Z,29.54
2018-08-03T12:46:25.979Z,29.56
2018-08-03T12:49:31.237Z,29.68
2018-08-03T12:52:35.855Z,29.58
2018-08-03T12:55:40.177Z,29.58
2018-08-03T12:58:44.469Z,29.58
2018-08-03T13:01:48.801Z,29.58
2018-08-03T13:04:53.169Z,29.65
2018-08-03T13:07:57.639Z,29.72
2018-08-03T13:11:01.869Z,29.95
2018-08-03T13:14:06.229Z,29.94
2018-08-03T13:17:10.592Z,30.02
2018-08-03T13:20:14.907Z,30.09
2018-08-03T13:23:19.213Z,30.03
2018-08-03T13:26:23.911Z,30.18
2018-08-03T13:29:28.239Z,30.24
2018-08-03T13:32:32.464Z,30.28
2018-08-03T13:35:36.893Z,30.10
2018-08-03T13:38:41.228Z,30.17
2018-08-03T13:41:45.449Z,30.11
2018-08-03T13:44:49.800Z,30.19
2018-08-03T13:47:54.127Z,30.26
2018-08-03T13:50:58.419Z,30.21
2018-08-03T13:54:02.776Z,30.02
2018-08-03T13:57:07.184Z,30.01
2018-08-03T14:00:13.184Z,30.14
2018-08-03T14:03:17.522Z,30.29
2018-08-03T14:06:21.857Z,30.55
2018-08-03T14:09:26.184Z,30.63
2018-08-03T14:12:31.542Z,30.51
2018-08-03T14:15:36.698Z,30.54
2018-08-03T14:18:40.961Z,30.74
2018-08-03T14:21:45.307Z,30.57
2018-08-03T14:24:49.567Z,30.54
2018-08-03T14:27:53.968Z,30.58
2018-08-03T14:30:58.402Z,30.62
2018-08-03T14:34:02.839Z,30.56
2018-08-03T14:37:07.227Z,30.27
2018-08-03T14:40:11.549Z,30.25
2018-08-03T14:43:15.859Z,30.50
2018-08-03T14:46:20.158Z,30.66
2018-08-03T14:49:24.859Z,30.63
2018-08-03T14:52:29.212Z,30.46
2018-08-03T14:55:33.570Z,30.43
2018-08-03T14:58:37.905Z,30.49
2018-08-03T15:01:42.201Z,30.62
2018-08-03T15:04:46.505Z,30.78
2018-08-03T15:07:50.863Z,30.73
2018-08-03T15:10:55.260Z,30.69
2018-08-03T15:13:59.671Z,30.74
2018-08-03T15:17:03.980Z,30.93
2018-08-03T15:20:09.422Z,30.89
2018-08-03T15:23:13.763Z,31.01
2018-08-03T15:26:18.025Z,31.38
2018-08-03T15:29:22.381Z,31.86
2018-08-03T15:32:26.708Z,31.77
2018-08-03T15:35:31.152Z,31.88
2018-08-03T15:38:35.471Z,32.30
2018-08-03T15:41:40.638Z,32.68
2018-08-03T15:44:44.905Z,32.48
2018-08-03T15:47:49.251Z,32.69
2018-08-03T15:50:53.564Z,32.95
2018-08-03T15:53:57.893Z,32.76
2018-08-03T15:57:02.196Z,32.69
2018-08-03T16:00:08.473Z,32.67
2018-08-03T16:03:12.687Z,32.55
2018-08-03T16:06:16.994Z,32.92
2018-08-03T16:09:21.300Z,33.19
2018-08-03T16:12:25.635Z,32.78
2018-08-03T16:15:30.289Z,32.79
2018-08-03T16:18:34.598Z,32.64
2018-08-03T16:21:38.912Z,33.13
2018-08-03T16:24:43.254Z,32.85
2018-08-03T16:27:47.521Z,33.04
2018-08-03T16:30:51.856Z,33.02
2018-08-03T16:33:56.327Z,32.92
2018-08-03T16:37:00.703Z,33.28
2018-08-03T16:40:05.280Z,33.53
2018-08-03T16:43:09.574Z,33.63
2018-08-03T16:46:13.970Z,33.71
2018-08-03T16:49:18.224Z,33.55
2018-08-03T16:52:22.597Z,33.77
2018-08-03T16:55:26.960Z,33.66
2018-08-03T16:58:31.272Z,33.81
2018-08-03T17:01:35.576Z,33.66
2018-08-03T17:04:39.900Z,33.61
2018-08-03T17:07:44.414Z,33.68
2018-08-03T17:10:48.677Z,33.50
2018-08-03T17:13:53.064Z,33.50
2018-08-03T17:16:57.328Z,33.24
2018-08-03T17:20:01.605Z,33.02
2018-08-03T17:23:05.955Z,33.12
2018-08-03T17:26:10.306Z,31.82
2018-08-03T17:29:14.355Z,31.05
2018-08-03T17:32:18.710Z,30.31
2018-08-03T17:35:29.766Z,29.64
2018-08-03T17:38:34.200Z,29.04
2018-08-03T17:41:38.774Z,28.51
2018-08-03T17:44:44.370Z,28.21
2018-08-03T17:47:50.035Z,27.89
2018-08-03T17:50:55.510Z,27.74
2018-08-03T17:54:00.977Z,27.47
2018-08-03T17:57:06.311Z,27.26
2018-08-03T18:00:11.096Z,27.16
2018-08-03T18:03:15.526Z,26.98
2018-08-03T18:06:20.179Z,26.83
2018-08-03T18:09:25.653Z,26.70
2018-08-03T18:12:30.183Z,26.62
2018-08-03T18:15:34.512Z,26.53
2018-08-03T18:18:38.970Z,26.37
2018-08-03T18:21:43.383Z,26.22
2018-08-03T18:24:47.814Z,26.11
2018-08-03T18:27:52.108Z,26.03
2018-08-03T18:31:03.292Z,25.90
2018-08-03T18:34:07.701Z,25.77
2018-08-03T18:37:12.014Z,25.69
2018-08-03T18:40:16.366Z,25.57
2018-08-03T18:43:21.047Z,25.46
2018-08-03T18:46:25.390Z,25.37
2018-08-03T18:49:29.752Z,25.22
2018-08-03T18:52:34.096Z,25.11
2018-08-03T18:55:38.434Z,25.05
2018-08-03T18:58:42.752Z,24.99
2018-08-03T19:01:47.187Z,24.95
2018-08-03T19:04:51.514Z,24.85
2018-08-03T19:07:55.941Z,24.77
2018-08-03T19:11:00.208Z,24.61
2018-08-03T19:14:04.504Z,24.54
2018-08-03T19:17:08.865Z,24.47
2018-08-03T19:20:13.133Z,24.33
2018-08-03T19:23:17.549Z,24.29
2018-08-03T19:26:21.953Z,24.20
2018-08-03T19:29:26.370Z,24.13
2018-08-03T19:32:30.677Z,24.06
2018-08-03T19:35:35.020Z,23.94
2018-08-03T19:38:39.444Z,23.80
2018-08-03T19:41:43.884Z,23.72
2018-08-03T19:44:48.266Z,23.63
2018-08-03T19:47:52.605Z,23.61
2018-08-03T19:50:56.929Z,23.42
2018-08-03T19:54:01.371Z,23.34
2018-08-03T19:57:05.790Z,23.21
2018-08-03T20:00:12.376Z,23.11
2018-08-03T20:03:16.869Z,23.06
2018-08-03T20:06:21.601Z,22.88
2018-08-03T20:09:26.045Z,22.73
2018-08-03T20:12:30.429Z,22.68
2018-08-03T20:15:34.965Z,22.62
2018-08-03T20:18:39.514Z,22.58
2018-08-03T20:21:44.013Z,22.59
2018-08-03T20:24:48.346Z,22.56
2018-08-03T20:27:53.393Z,22.48
2018-08-03T20:30:57.788Z,22.42
2018-08-03T20:34:02.113Z,22.35
2018-08-03T20:37:06.684Z,22.24
2018-08-03T20:40:11.489Z,22.13
2018-08-03T20:43:15.883Z,22.08
2018-08-03T20:46:20.229Z,22.05
2018-08-03T20:49:24.911Z,22.03
2018-08-03T20:52:29.255Z,21.99
2018-08-03T20:55:33.677Z,21.86
2018-08-03T20:58:37.989Z,21.83
2018-08-03T21:01:42.432Z,21.79
2018-08-03T21:04:46.775Z,21.73
2018-08-03T21:07:51.280Z,21.69
2018-08-03T21:10:56.617Z,21.66
2018-08-03T21:14:00.896Z,21.64
2018-08-03T21:17:05.083Z,21.57
2018-08-03T21:20:09.926Z,21.54
2018-08-03T21:23:14.293Z,21.49
2018-08-03T21:26:18.730Z,21.45
2018-08-03T21:29:23.241Z,21.43
2018-08-03T21:32:27.699Z,21.37
2018-08-03T21:35:32.062Z,21.31
2018-08-03T21:38:36.403Z,21.24
2018-08-03T21:41:40.663Z,21.15
2018-08-03T21:44:44.998Z,21.09
2018-08-03T21:47:49.316Z,21.03
2018-08-03T21:50:53.849Z,20.97
2018-08-03T21:53:58.101Z,20.92
2018-08-03T21:57:02.508Z,20.85
2018-08-03T22:00:12.250Z,20.90
2018-08-03T22:03:16.521Z,20.99
2018-08-03T22:06:20.822Z,21.03
2018-08-03T22:09:25.124Z,21.05
2018-08-03T22:12:29.365Z,21.06
2018-08-03T22:15:33.643Z,21.06
2018-08-03T22:18:37.906Z,21.06
2018-08-03T22:21:42.183Z,21.08
2018-08-03T22:24:46.587Z,21.05
2018-08-03T22:27:50.900Z,21.04
2018-08-03T22:30:55.362Z,21.09
2018-08-03T22:33:59.631Z,21.09
2018-08-03T22:37:03.946Z,21.10
2018-08-03T22:40:08.359Z,21.08
2018-08-03T22:43:12.741Z,21.05
2018-08-03T22:46:17.065Z,21.02
2018-08-03T22:49:21.381Z,20.94
2018-08-03T22:52:25.718Z,20.85
2018-08-03T22:55:29.967Z,20.80
2018-08-03T22:58:34.462Z,20.74
2018-08-03T23:01:38.727Z,20.68
2018-08-03T23:04:43.010Z,20.74
2018-08-03T23:07:47.385Z,20.74
2018-08-03T23:10:51.692Z,20.71
2018-08-03T23:13:56.058Z,20.72
2018-08-03T23:17:00.368Z,20.74
2018-08-03T23:20:05.068Z,20.77
2018-08-03T23:23:09.207Z,20.83
2018-08-03T23:26:13.592Z,20.90
2018-08-03T23:29:17.917Z,20.91
2018-08-03T23:32:22.076Z,20.91
2018-08-03T23:35:26.464Z,20.93
2018-08-03T23:38:30.473Z,20.98
2018-08-03T23:41:34.812Z,21.00
2018-08-03T23:44:39.223Z,21.02
2018-08-03T23:47:43.537Z,21.02
2018-08-03T23:50:47.827Z,21.01
2018-08-03T23:53:52.160Z,21.00
2018-08-03T23:56:56.494Z,20.99
